Time;durP1;ratioP1;P1;durP2;ratioP2;P2;SDS_P1;SDS_P2;PMS_P1;PMS_P2;Temp;Humidity;BMP_temperature;BMP_pressure;BME280_temperature;BME280_humidity;BME280_pressure;Samples;Min_cycle;Max_cycle;Signal;HPM_P1;HPM_P2
2024/02/12 00:00:23;;;;;;;44.40;23.20;;;9.50;99.90;;;;;;5067102;28;20215;-77
2024/02/12 00:02:50;;;;;;;49.67;24.00;;;9.60;99.90;;;;;;5071668;28;20307;-76
2024/02/12 00:05:17;;;;;;;56.13;28.88;;;9.70;99.90;;;;;;5064853;28;20328;-75
2024/02/12 00:07:45;;;;;;;62.30;29.65;;;9.70;99.90;;;;;;5077169;28;20237;-75
2024/02/12 00:10:12;;;;;;;51.15;27.70;;;9.70;99.90;;;;;;5070588;28;20216;-75
2024/02/12 00:12:39;;;;;;;67.28;30.80;;;9.70;99.90;;;;;;5072364;28;20697;-74
2024/02/12 00:15:08;;;;;;;40.28;23.48;;;9.80;99.90;;;;;;5066321;28;20249;-74
2024/02/12 00:17:36;;;;;;;73.57;33.55;;;9.80;99.90;;;;;;5072352;28;20290;-75
2024/02/12 00:20:06;;;;;;;80.00;34.40;;;9.80;99.90;;;;;;5068520;28;20295;-73
2024/02/12 00:22:33;;;;;;;62.63;34.63;;;9.70;99.90;;;;;;5067367;28;20721;-77
2024/02/12 00:25:03;;;;;;;69.75;37.40;;;9.80;99.90;;;;;;5073831;28;20575;-75
2024/02/12 00:27:31;;;;;;;67.75;35.15;;;9.80;99.90;;;;;;5072312;28;20211;-76
2024/02/12 00:29:58;;;;;;;71.10;36.15;;;9.70;99.90;;;;;;5073322;28;20261;-75
2024/02/12 00:32:26;;;;;;;85.03;39.20;;;9.80;99.90;;;;;;5076186;28;20295;-73
2024/02/12 00:34:54;;;;;;;92.88;40.55;;;9.70;99.90;;;;;;5073632;28;20202;-77
2024/02/12 00:37:25;;;;;;;96.15;40.80;;;9.60;99.90;;;;;;5068148;28;20285;-74
2024/02/12 00:39:52;;;;;;;105.38;43.13;;;9.60;99.90;;;;;;5073218;28;20217;-76
2024/02/12 00:42:21;;;;;;;92.57;42.30;;;9.60;99.90;;;;;;5061386;28;20266;-78
2024/02/12 00:44:49;;;;;;;85.57;40.60;;;9.60;99.90;;;;;;5073675;28;20242;-74
2024/02/12 00:47:16;;;;;;;88.40;39.30;;;9.60;99.90;;;;;;5073885;28;20221;-74
2024/02/12 00:49:43;;;;;;;115.03;43.75;;;9.60;99.90;;;;;;5063640;28;20203;-74
2024/02/12 00:52:11;;;;;;;84.80;38.17;;;9.50;99.90;;;;;;5067515;28;20233;-74
2024/02/12 00:54:40;;;;;;;118.78;45.03;;;9.50;99.90;;;;;;5072840;28;20202;-75
2024/02/12 00:57:07;;;;;;;92.80;41.55;;;9.50;99.90;;;;;;5067442;28;20196;-75
2024/02/12 00:59:38;;;;;;;90.03;43.33;;;9.40;99.90;;;;;;5068809;28;20247;-76
2024/02/12 01:02:06;;;;;;;118.13;43.65;;;9.40;99.90;;;;;;5067361;28;20211;-75
2024/02/12 01:04:34;;;;;;;82.50;36.65;;;9.40;99.90;;;;;;5062454;28;20227;-77
2024/02/12 01:07:01;;;;;;;92.57;39.95;;;9.30;99.90;;;;;;5073203;28;20210;-73
2024/02/12 01:09:28;;;;;;;96.78;42.55;;;9.30;99.90;;;;;;5071583;28;20258;-76
2024/02/12 01:11:56;;;;;;;81.65;40.75;;;9.40;99.90;;;;;;5071574;28;20320;-74
2024/02/12 01:14:23;;;;;;;102.78;42.35;;;9.30;99.90;;;;;;5066867;28;20687;-74
2024/02/12 01:16:52;;;;;;;92.18;39.05;;;9.30;99.90;;;;;;5068375;28;20726;-74
2024/02/12 01:19:20;;;;;;;76.25;36.08;;;9.30;99.90;;;;;;5059946;28;20200;-75
2024/02/12 01:21:47;;;;;;;65.70;35.25;;;9.30;99.90;;;;;;5064638;28;20215;-73
2024/02/12 01:24:14;;;;;;;93.25;42.22;;;9.40;99.90;;;;;;5072495;28;20263;-74
2024/02/12 01:26:41;;;;;;;86.35;39.17;;;9.40;99.90;;;;;;5060952;28;20199;-73
2024/02/12 01:29:09;;;;;;;91.85;41.95;;;9.40;99.90;;;;;;5072254;28;20272;-77
2024/02/12 01:31:36;;;;;;;77.03;38.75;;;9.40;99.90;;;;;;5068048;28;20226;-73
2024/02/12 01:34:05;;;;;;;80.85;39.42;;;9.40;99.90;;;;;;5062764;28;20302;-75
2024/02/12 01:36:33;;;;;;;79.18;39.03;;;9.40;99.90;;;;;;5066354;28;20665;-73
2024/02/12 01:39:00;;;;;;;88.95;41.15;;;9.40;99.90;;;;;;5064221;28;20195;-74
2024/02/12 01:41:27;;;;;;;72.30;32.95;;;9.40;99.90;;;;;;5070650;28;20204;-77
2024/02/12 01:43:54;;;;;;;101.82;44.30;;;9.40;99.90;;;;;;5069145;28;20249;-73
2024/02/12 01:46:21;;;;;;;85.68;42.03;;;9.40;99.90;;;;;;5072460;28;20224;-73
2024/02/12 01:48:48;;;;;;;77.30;40.05;;;9.40;99.90;;;;;;5070901;28;20826;-73
2024/02/12 01:51:19;;;;;;;63.35;35.38;;;9.50;99.90;;;;;;5069607;28;20195;-75
2024/02/12 01:53:48;;;;;;;89.97;41.90;;;9.50;99.90;;;;;;5064277;28;20218;-73
2024/02/12 01:56:15;;;;;;;70.47;35.60;;;9.50;99.90;;;;;;5069054;28;20293;-74
2024/02/12 01:58:43;;;;;;;79.05;34.42;;;9.50;99.90;;;;;;5065815;28;20200;-76
2024/02/12 02:01:14;;;;;;;76.18;36.42;;;9.50;99.90;;;;;;5062128;28;20208;-74
2024/02/12 02:03:41;;;;;;;70.88;36.42;;;9.50;99.90;;;;;;5060645;28;20224;-77
2024/02/12 02:06:08;;;;;;;68.72;35.78;;;9.50;99.90;;;;;;5066235;28;20638;-73
2024/02/12 02:08:37;;;;;;;84.63;39.03;;;9.40;99.90;;;;;;5063759;28;20261;-75
2024/02/12 02:11:05;;;;;;;64.75;32.65;;;9.60;99.90;;;;;;5071780;28;20275;-75
2024/02/12 02:13:34;;;;;;;71.00;33.28;;;9.70;99.90;;;;;;5069159;28;20637;-74
2024/02/12 02:16:01;;;;;;;67.47;34.83;;;9.60;99.90;;;;;;5068836;28;20278;-77
2024/02/12 02:18:29;;;;;;;68.50;35.33;;;9.70;99.90;;;;;;5071207;28;20323;-75
2024/02/12 02:20:56;;;;;;;65.25;34.22;;;9.70;99.90;;;;;;5077621;28;20317;-76
2024/02/12 02:23:25;;;;;;;64.80;33.30;;;9.60;99.90;;;;;;5075699;28;20345;-77
2024/02/12 02:25:54;;;;;;;65.20;33.28;;;9.60;99.90;;;;;;5075245;28;20579;-75
2024/02/12 02:28:21;;;;;;;67.38;35.47;;;9.50;99.90;;;;;;5068256;28;20726;-77
2024/02/12 02:30:48;;;;;;;53.05;29.00;;;9.60;99.90;;;;;;5075263;28;20203;-76
2024/02/12 02:33:16;;;;;;;60.08;28.63;;;9.60;99.90;;;;;;5067856;28;20227;-75
2024/02/12 02:35:44;;;;;;;58.50;30.98;;;9.60;99.90;;;;;;5067441;28;20662;-76
2024/02/12 02:38:12;;;;;;;48.85;30.67;;;9.70;99.90;;;;;;5076174;28;20217;-75
2024/02/12 02:40:38;;;;;;;77.57;34.25;;;9.70;99.90;;;;;;5074691;28;20237;-73
2024/02/12 02:43:07;;;;;;;72.45;35.28;;;9.70;99.90;;;;;;5073378;28;20656;-74
2024/02/12 02:45:35;;;;;;;69.97;35.30;;;9.70;99.90;;;;;;5063299;28;20640;-77
2024/02/12 02:48:02;;;;;;;65.55;36.95;;;9.60;99.90;;;;;;5069496;28;20294;-75
2024/02/12 02:50:30;;;;;;;48.53;29.17;;;9.70;99.90;;;;;;5074834;28;20238;-75
2024/02/12 02:52:58;;;;;;;65.78;32.97;;;9.70;99.90;;;;;;5070681;28;20704;-75
2024/02/12 02:55:28;;;;;;;67.68;33.95;;;9.70;99.90;;;;;;5075486;28;20253;-74
2024/02/12 02:57:55;;;;;;;69.22;38.13;;;9.70;99.90;;;;;;5071640;28;20221;-75
2024/02/12 03:00:25;;;;;;;72.53;35.13;;;9.70;99.90;;;;;;5075927;28;20703;-74
2024/02/12 03:02:53;;;;;;;57.03;33.92;;;9.60;99.90;;;;;;5066626;28;20231;-76
2024/02/12 03:05:20;;;;;;;52.85;32.53;;;9.60;99.90;;;;;;5071602;28;20219;-74
2024/02/12 03:07:48;;;;;;;54.15;30.45;;;9.60;99.90;;;;;;5072094;28;20200;-74
2024/02/12 03:10:16;;;;;;;63.00;34.88;;;9.60;99.90;;;;;;5070702;28;20239;-75
2024/02/12 03:12:43;;;;;;;55.33;31.92;;;9.60;99.90;;;;;;5071319;28;20758;-74
2024/02/12 03:15:14;;;;;;;57.33;32.22;;;9.50;99.90;;;;;;5075374;28;20199;-77
2024/02/12 03:17:43;;;;;;;50.33;29.50;;;9.50;99.90;;;;;;5074456;28;20600;-74
2024/02/12 03:20:12;;;;;;;74.25;35.97;;;9.60;99.90;;;;;;5074580;28;20246;-74
2024/02/12 03:22:40;;;;;;;60.92;35.53;;;9.60;99.90;;;;;;5074651;28;20228;-73
2024/02/12 03:25:09;;;;;;;59.35;31.25;;;9.60;99.90;;;;;;5067432;28;20307;-76
2024/02/12 03:27:36;;;;;;;51.65;29.60;;;9.50;99.90;;;;;;5074336;28;20207;-77
2024/02/12 03:30:06;;;;;;;45.25;28.55;;;9.50;99.90;;;;;;5073816;28;20560;-74
2024/02/12 03:32:34;;;;;;;54.80;29.75;;;9.50;99.90;;;;;;5074146;28;20234;-71
2024/02/12 03:35:03;;;;;;;72.30;33.70;;;9.60;99.90;;;;;;5074060;28;20199;-72
2024/02/12 03:37:30;;;;;;;85.75;37.17;;;9.40;99.90;;;;;;5060210;28;20294;-75
2024/02/12 03:39:57;;;;;;;55.60;30.00;;;9.30;99.90;;;;;;5074335;28;20200;-73
2024/02/12 03:42:27;;;;;;;55.80;31.17;;;9.30;99.90;;;;;;5072002;28;20302;-74
2024/02/12 03:44:54;;;;;;;57.40;29.20;;;9.30;99.90;;;;;;5074708;28;20269;-75
2024/02/12 03:47:27;;;;;;;60.70;31.02;;;9.30;99.90;;;;;;5076303;28;20733;-74
2024/02/12 04:00:54;;;;;;;51.25;27.60;;;9.30;99.90;;;;;;5074428;28;20260;-75
2024/02/12 04:03:21;;;;;;;66.97;32.60;;;9.40;99.90;;;;;;5067371;28;20309;-72
2024/02/12 04:05:48;;;;;;;62.40;29.80;;;9.30;99.90;;;;;;5063713;28;20220;-73
2024/02/12 04:08:16;;;;;;;84.63;33.67;;;9.30;99.90;;;;;;5061969;28;20258;-72
2024/02/12 04:10:44;;;;;;;66.68;31.83;;;9.20;99.90;;;;;;5071108;28;20294;-77
2024/02/12 04:13:12;;;;;;;64.70;30.83;;;9.10;99.90;;;;;;5068056;28;20701;-74
2024/02/12 04:15:41;;;;;;;64.38;32.35;;;9.20;99.90;;;;;;5075451;28;20204;-75
2024/02/12 04:18:08;;;;;;;67.07;30.00;;;9.10;99.90;;;;;;5067142;28;20254;-76
2024/02/12 04:20:37;;;;;;;78.28;34.28;;;9.20;99.90;;;;;;5071868;28;20634;-74
2024/02/12 04:23:05;;;;;;;62.85;30.60;;;9.10;99.90;;;;;;5069899;28;20223;-76
2024/02/12 04:25:34;;;;;;;78.75;33.60;;;9.10;99.90;;;;;;5065111;28;20238;-74
2024/02/12 04:28:03;;;;;;;79.00;30.98;;;9.10;99.90;;;;;;5072380;28;20215;-75
2024/02/12 04:30:30;;;;;;;44.45;28.80;;;9.00;99.90;;;;;;5064918;28;20200;-76
2024/02/12 04:32:58;;;;;;;77.53;33.67;;;9.00;99.90;;;;;;5065068;28;20697;-76
2024/02/12 04:35:26;;;;;;;76.05;31.30;;;9.10;99.90;;;;;;5066753;28;20571;-74
2024/02/12 04:37:54;;;;;;;56.10;30.38;;;9.10;99.90;;;;;;5073249;28;20200;-76
2024/02/12 04:40:23;;;;;;;82.57;36.88;;;9.10;99.90;;;;;;5070760;28;20203;-78
2024/02/12 04:42:53;;;;;;;51.20;29.65;;;9.00;99.90;;;;;;5068234;28;20257;-73
2024/02/12 04:45:21;;;;;;;64.50;30.58;;;9.00;99.90;;;;;;5073021;28;20251;-73
2024/02/12 04:47:51;;;;;;;65.72;28.92;;;9.00;99.90;;;;;;5065769;28;20290;-76
2024/02/12 04:50:18;;;;;;;60.28;30.90;;;8.90;99.90;;;;;;5066484;28;20604;-75
2024/02/12 04:52:45;;;;;;;79.70;34.35;;;8.90;99.90;;;;;;5073172;28;20231;-74
2024/02/12 04:55:12;;;;;;;65.50;34.22;;;8.90;99.90;;;;;;5070319;28;20271;-75
2024/02/12 04:57:40;;;;;;;58.30;29.08;;;8.90;99.90;;;;;;5071411;28;20204;-75
2024/02/12 05:00:10;;;;;;;74.90;31.90;;;8.90;99.90;;;;;;5065882;28;20195;-73
2024/02/12 05:02:40;;;;;;;61.58;30.83;;;8.90;99.90;;;;;;5067086;28;20224;-75
2024/02/12 05:05:08;;;;;;;64.07;29.98;;;8.90;99.90;;;;;;5070230;28;20239;-74
2024/02/12 05:07:35;;;;;;;56.17;26.35;;;8.80;99.90;;;;;;5072157;28;20553;-76
2024/02/12 05:10:02;;;;;;;69.22;32.13;;;8.80;99.90;;;;;;5072215;28;20612;-76
2024/02/12 05:12:29;;;;;;;64.53;30.33;;;8.80;99.90;;;;;;5070178;28;20704;-73
2024/02/12 05:14:57;;;;;;;51.63;25.27;;;8.70;99.90;;;;;;5060169;28;20211;-73
2024/02/12 05:17:41;;;;;;;55.60;30.00;;;8.70;99.90;;;;;;5072652;28;20570;-73
2024/02/12 05:22:54;;;;;;;44.05;25.60;;;8.70;99.90;;;;;;5072373;28;20230;-74
2024/02/12 05:25:21;;;;;;;61.70;28.85;;;8.60;99.90;;;;;;5066666;28;20243;-76
2024/02/12 05:27:48;;;;;;;57.38;29.00;;;8.70;99.90;;;;;;5069346;28;20203;-74
2024/02/12 05:30:15;;;;;;;58.20;28.45;;;8.70;99.90;;;;;;5067587;28;20721;-74
2024/02/12 05:32:43;;;;;;;53.28;24.60;;;8.70;99.90;;;;;;5065606;28;20219;-75
2024/02/12 05:35:12;;;;;;;53.00;28.20;;;8.70;99.90;;;;;;5067775;28;20543;-76
2024/02/12 05:37:39;;;;;;;46.97;24.48;;;8.80;99.90;;;;;;5066681;28;20554;-76
2024/02/12 05:40:08;;;;;;;61.13;28.73;;;8.80;99.90;;;;;;5069166;28;20199;-74
2024/02/12 05:42:35;;;;;;;57.38;27.30;;;8.80;99.90;;;;;;5062158;28;20303;-73
2024/02/12 05:45:02;;;;;;;57.80;28.27;;;8.70;99.90;;;;;;5065935;28;20208;-74
2024/02/12 05:47:29;;;;;;;53.20;27.30;;;8.60;99.90;;;;;;5069708;28;20212;-71
2024/02/12 05:49:57;;;;;;;51.08;28.73;;;8.60;99.90;;;;;;5070382;28;20303;-74
2024/02/12 05:52:25;;;;;;;50.60;25.83;;;8.70;99.90;;;;;;5071962;28;20219;-73
2024/02/12 05:54:52;;;;;;;44.10;23.67;;;8.70;99.90;;;;;;5070003;28;20611;-74
2024/02/12 05:57:19;;;;;;;45.30;23.45;;;8.70;99.90;;;;;;5063811;28;20254;-73
2024/02/12 05:59:46;;;;;;;40.55;22.80;;;8.70;99.90;;;;;;5065748;28;20211;-74
2024/02/12 06:02:13;;;;;;;51.50;23.73;;;8.70;99.90;;;;;;5070064;28;20231;-74
2024/02/12 06:04:40;;;;;;;51.10;25.00;;;8.60;99.90;;;;;;5071923;28;20239;-73
2024/02/12 06:07:08;;;;;;;61.00;27.75;;;8.60;99.90;;;;;;5070848;28;20693;-75
2024/02/12 06:09:36;;;;;;;42.22;24.45;;;8.50;99.90;;;;;;5066267;28;20261;-74
2024/02/12 06:12:05;;;;;;;54.28;27.38;;;8.40;99.90;;;;;;5068011;28;20201;-74
2024/02/12 06:14:32;;;;;;;38.95;21.40;;;8.50;99.90;;;;;;5068642;28;20199;-74
2024/02/12 06:16:59;;;;;;;50.28;25.50;;;8.50;99.90;;;;;;5070732;28;20196;-76
2024/02/12 06:19:26;;;;;;;53.70;24.92;;;8.40;99.90;;;;;;5065148;28;20603;-73
2024/02/12 06:21:53;;;;;;;58.88;26.80;;;8.50;99.90;;;;;;5069937;28;20233;-76
2024/02/12 06:24:22;;;;;;;48.25;25.88;;;8.50;99.90;;;;;;5072476;28;20221;-74
2024/02/12 06:26:49;;;;;;;49.60;25.17;;;8.60;99.90;;;;;;5067840;28;20251;-74
2024/02/12 06:29:16;;;;;;;47.83;25.10;;;8.60;99.90;;;;;;5061526;28;20626;-75
2024/02/12 06:31:45;;;;;;;44.58;24.40;;;8.60;99.90;;;;;;5064846;28;20201;-75
2024/02/12 06:34:12;;;;;;;41.55;24.55;;;8.60;99.90;;;;;;5056893;28;20239;-75
2024/02/12 06:36:39;;;;;;;49.92;26.40;;;8.60;99.90;;;;;;5069393;28;20867;-77
2024/02/12 06:39:06;;;;;;;45.72;24.65;;;8.60;99.90;;;;;;5060959;28;20228;-76
2024/02/12 06:41:34;;;;;;;43.13;23.95;;;8.60;99.90;;;;;;5066737;28;20196;-73
2024/02/12 06:44:01;;;;;;;41.58;23.23;;;8.60;99.90;;;;;;5071577;28;20376;-76
2024/02/12 06:46:28;;;;;;;40.85;22.80;;;8.60;99.90;;;;;;5071766;28;20215;-74
2024/02/12 06:48:55;;;;;;;38.83;21.95;;;8.60;99.90;;;;;;5061589;28;20204;-73
2024/02/12 06:51:22;;;;;;;39.78;21.80;;;8.60;99.90;;;;;;5061719;28;20200;-76
2024/02/12 06:53:49;;;;;;;30.50;19.98;;;8.60;99.90;;;;;;5071310;28;20232;-75
2024/02/12 06:56:16;;;;;;;37.47;20.30;;;8.60;99.90;;;;;;5065651;28;20253;-74
2024/02/12 06:58:45;;;;;;;32.85;20.73;;;8.50;99.90;;;;;;5065761;28;20289;-75
2024/02/12 07:01:13;;;;;;;36.03;19.67;;;8.60;99.90;;;;;;5063990;28;20657;-76
2024/02/12 07:03:41;;;;;;;31.02;17.92;;;8.50;99.90;;;;;;5069880;28;20297;-75
2024/02/12 07:06:11;;;;;;;38.90;20.45;;;8.50;99.90;;;;;;5069119;28;20223;-77
2024/02/12 07:08:41;;;;;;;43.47;22.38;;;8.50;99.90;;;;;;5066799;28;20199;-73
2024/02/12 07:11:08;;;;;;;38.85;22.42;;;8.40;99.90;;;;;;5069660;28;20596;-74
2024/02/12 07:13:35;;;;;;;44.55;24.77;;;8.40;99.90;;;;;;5067230;28;20705;-74
2024/02/12 07:16:05;;;;;;;41.38;23.20;;;8.40;99.90;;;;;;5073379;28;20200;-74
2024/02/12 07:18:32;;;;;;;39.60;24.10;;;8.40;99.90;;;;;;5061701;28;20225;-74
2024/02/12 07:20:59;;;;;;;56.20;22.77;;;8.40;99.90;;;;;;5070590;28;20207;-72
2024/02/12 07:23:26;;;;;;;38.35;19.73;;;8.50;99.90;;;;;;5074582;28;20219;-74
2024/02/12 07:25:53;;;;;;;42.67;21.88;;;8.60;99.90;;;;;;5070121;28;20269;-73
2024/02/12 07:28:21;;;;;;;31.88;21.23;;;8.60;99.90;;;;;;5067229;28;20211;-73
2024/02/12 07:30:48;;;;;;;37.20;22.05;;;8.80;99.90;;;;;;5074200;28;20200;-74
2024/02/12 07:33:19;;;;;;;36.47;21.60;;;8.90;99.90;;;;;;5073227;28;20247;-76
2024/02/12 07:35:46;;;;;;;45.83;24.25;;;8.90;99.90;;;;;;5074024;28;20199;-76
2024/02/12 07:38:13;;;;;;;41.88;25.00;;;9.00;99.90;;;;;;5064473;28;20208;-73
2024/02/12 07:40:40;;;;;;;53.33;31.70;;;8.90;99.90;;;;;;5075763;28;20203;-74
2024/02/12 07:43:07;;;;;;;46.78;22.85;;;8.90;99.90;;;;;;5073945;28;20269;-76
2024/02/12 07:45:34;;;;;;;48.60;24.95;;;8.80;99.90;;;;;;5066714;28;20563;-74
2024/02/12 07:48:01;;;;;;;35.42;20.58;;;8.80;99.90;;;;;;5069303;28;20292;-73
2024/02/12 07:50:29;;;;;;;50.75;26.08;;;8.80;99.90;;;;;;5063875;28;20195;-75
2024/02/12 07:52:56;;;;;;;46.65;23.25;;;8.90;99.90;;;;;;5062342;28;20702;-75
2024/02/12 07:55:24;;;;;;;44.08;22.98;;;8.80;99.90;;;;;;5065813;28;20203;-77
2024/02/12 07:57:51;;;;;;;46.30;24.42;;;8.80;99.90;;;;;;5073815;28;20227;-74
2024/02/12 08:00:18;;;;;;;46.50;26.55;;;8.80;99.90;;;;;;5073244;28;20207;-74
2024/02/12 08:02:46;;;;;;;49.20;26.20;;;8.80;99.90;;;;;;5067613;28;20288;-74
2024/02/12 08:05:14;;;;;;;55.60;26.35;;;8.80;99.90;;;;;;5070263;28;20617;-73
2024/02/12 08:07:43;;;;;;;45.60;26.98;;;8.80;99.90;;;;;;5067057;28;20302;-75
2024/02/12 08:10:11;;;;;;;51.42;25.90;;;8.70;99.90;;;;;;5071633;28;20266;-75
2024/02/12 08:12:38;;;;;;;46.75;23.60;;;8.60;99.90;;;;;;5073499;28;20560;-77
2024/02/12 08:15:06;;;;;;;43.42;24.15;;;8.60;99.90;;;;;;5068627;28;20625;-76
2024/02/12 08:17:33;;;;;;;52.70;28.45;;;8.70;99.90;;;;;;5073862;28;20196;-77
2024/02/12 08:20:00;;;;;;;47.75;25.92;;;8.70;99.90;;;;;;5073070;28;20638;-77
2024/02/12 08:22:27;;;;;;;57.47;28.05;;;8.60;99.90;;;;;;5072143;28;20219;-75
2024/02/12 08:24:55;;;;;;;52.38;25.17;;;8.60;99.90;;;;;;5069212;28;20254;-75
2024/02/12 08:27:22;;;;;;;50.97;26.38;;;8.60;99.90;;;;;;5073055;28;20762;-75
2024/02/12 08:29:49;;;;;;;45.67;25.63;;;8.60;99.90;;;;;;5073399;28;20199;-74
2024/02/12 08:32:18;;;;;;;50.30;28.45;;;8.60;99.90;;;;;;5071746;28;20254;-72
2024/02/12 08:34:45;;;;;;;48.40;26.63;;;8.70;99.90;;;;;;5070600;28;20291;-74
2024/02/12 08:37:12;;;;;;;54.67;26.85;;;8.70;99.90;;;;;;5070099;28;20200;-74
2024/02/12 08:39:44;;;;;;;57.45;27.60;;;8.70;99.90;;;;;;5064870;28;20240;-75
2024/02/12 08:42:12;;;;;;;51.47;28.50;;;8.60;99.90;;;;;;5072358;28;20253;-75
2024/02/12 08:44:39;;;;;;;56.45;27.27;;;8.70;99.90;;;;;;5071768;28;20200;-75
2024/02/12 08:47:07;;;;;;;40.78;25.25;;;8.70;99.90;;;;;;5070874;28;20271;-73
2024/02/12 08:49:33;;;;;;;52.85;27.60;;;8.70;99.90;;;;;;5072271;28;20202;-74
2024/02/12 08:52:01;;;;;;;46.53;25.00;;;8.80;99.90;;;;;;5071651;28;20257;-74
2024/02/12 08:54:30;;;;;;;41.03;24.33;;;8.80;99.90;;;;;;5065962;28;20215;-73
2024/02/12 08:56:57;;;;;;;53.42;27.15;;;8.80;99.90;;;;;;5065264;28;20227;-76
2024/02/12 08:59:26;;;;;;;53.10;28.90;;;8.90;99.90;;;;;;5063673;28;20269;-74
2024/02/12 09:01:53;;;;;;;56.63;28.08;;;9.00;99.90;;;;;;5060523;28;20195;-74
2024/02/12 09:04:20;;;;;;;50.28;28.50;;;9.00;99.90;;;;;;5069228;28;20235;-74
2024/02/12 09:06:48;;;;;;;51.85;25.63;;;9.10;99.90;;;;;;5073261;28;20306;-76
2024/02/12 09:09:15;;;;;;;38.40;23.88;;;9.10;99.90;;;;;;5066505;28;20199;-74
2024/02/12 09:11:43;;;;;;;50.22;28.77;;;9.10;99.90;;;;;;5063079;28;20584;-74
2024/02/12 09:14:10;;;;;;;53.80;28.65;;;9.10;99.90;;;;;;5062376;28;20227;-75
2024/02/12 09:16:39;;;;;;;52.97;29.25;;;9.10;99.90;;;;;;5070986;28;20195;-73
2024/02/12 09:19:07;;;;;;;52.65;26.85;;;9.10;99.90;;;;;;5071388;28;20217;-77
2024/02/12 09:21:34;;;;;;;48.20;26.50;;;9.10;99.90;;;;;;5066227;28;20232;-74
2024/02/12 09:24:01;;;;;;;49.88;30.52;;;9.10;99.90;;;;;;5067961;28;20766;-74
2024/02/12 09:26:29;;;;;;;48.03;27.80;;;9.10;99.90;;;;;;5065909;28;20269;-74
2024/02/12 09:28:58;;;;;;;53.47;25.40;;;9.10;99.90;;;;;;5059904;28;20260;-73
2024/02/12 09:31:27;;;;;;;48.90;27.98;;;9.20;99.90;;;;;;5065390;28;20219;-75
2024/02/12 09:33:56;;;;;;;48.20;26.23;;;9.30;99.90;;;;;;5071397;28;20269;-73
2024/02/12 09:36:24;;;;;;;44.10;28.38;;;9.40;99.90;;;;;;5072424;28;20237;-73
2024/02/12 09:38:52;;;;;;;53.05;28.73;;;9.40;99.90;;;;;;5065459;28;20636;-73
2024/02/12 09:41:26;;;;;;;45.28;26.58;;;9.50;99.90;;;;;;5072384;28;20292;-73
2024/02/12 09:43:54;;;;;;;48.67;28.55;;;9.60;99.90;;;;;;5069728;28;20227;-73
2024/02/12 09:46:22;;;;;;;43.83;25.77;;;9.70;99.90;;;;;;5067677;28;20629;-73
2024/02/12 09:48:49;;;;;;;43.80;27.38;;;9.70;99.90;;;;;;5071189;28;20239;-76
2024/02/12 09:51:19;;;;;;;46.53;28.65;;;9.80;99.90;;;;;;5072199;28;20207;-74
2024/02/12 09:53:47;;;;;;;45.28;26.92;;;9.80;99.90;;;;;;5071755;28;20235;-72
2024/02/12 09:56:15;;;;;;;46.40;28.00;;;9.80;99.90;;;;;;5072082;28;20209;-76
2024/02/12 09:58:44;;;;;;;43.90;25.75;;;9.80;99.90;;;;;;5071473;28;20235;-73
2024/02/12 10:01:12;;;;;;;43.63;27.55;;;9.90;99.90;;;;;;5065641;28;20200;-73
2024/02/12 10:03:40;;;;;;;42.83;25.85;;;9.90;99.90;;;;;;5071608;28;20245;-74
2024/02/12 10:06:07;;;;;;;43.10;26.67;;;9.70;99.90;;;;;;5069250;28;20199;-75
2024/02/12 10:08:35;;;;;;;40.97;25.90;;;9.80;99.90;;;;;;5068313;28;20264;-74
2024/02/12 10:11:04;;;;;;;41.78;26.55;;;9.70;99.90;;;;;;5071626;28;20286;-74
2024/02/12 10:13:31;;;;;;;44.55;27.55;;;9.80;99.90;;;;;;5067934;28;20705;-74
2024/02/12 10:15:58;;;;;;;41.13;25.50;;;9.70;99.90;;;;;;5069772;28;20268;-73
2024/02/12 10:18:25;;;;;;;45.65;26.80;;;9.70;99.90;;;;;;5064904;28;20249;-74
2024/02/12 10:20:52;;;;;;;44.33;26.60;;;9.70;99.90;;;;;;5065949;28;20208;-74
2024/02/12 10:23:20;;;;;;;42.97;24.25;;;9.80;99.90;;;;;;5062917;28;20273;-73
2024/02/12 10:25:50;;;;;;;47.17;28.45;;;9.90;99.90;;;;;;5068085;28;20306;-73
2024/02/12 10:28:18;;;;;;;47.90;27.77;;;9.90;99.90;;;;;;5068911;28;20219;-74
2024/02/12 10:30:47;;;;;;;44.10;27.70;;;9.90;99.90;;;;;;5063535;28;20212;-74
2024/02/12 10:33:15;;;;;;;42.83;26.70;;;10.00;99.90;;;;;;5065839;28;20322;-74
2024/02/12 10:35:46;;;;;;;44.15;28.90;;;10.00;99.90;;;;;;5067435;28;20207;-73
2024/02/12 10:38:14;;;;;;;47.83;27.73;;;10.00;99.90;;;;;;5068041;28;20551;-73
2024/02/12 10:40:52;;;;;;;37.30;24.58;;;10.10;99.90;;;;;;5068444;28;20268;-73
2024/02/12 10:43:26;;;;;;;34.20;24.83;;;10.10;99.90;;;;;;5081640;28;20288;-71
2024/02/12 10:45:53;;;;;;;48.28;26.83;;;10.10;99.90;;;;;;5067530;28;20215;-74
2024/02/12 10:48:21;;;;;;;48.53;27.25;;;10.10;99.90;;;;;;5069719;28;20288;-74
2024/02/12 10:50:50;;;;;;;34.90;22.13;;;10.10;99.90;;;;;;5065110;28;21069;-74
2024/02/12 10:53:17;;;;;;;33.50;24.25;;;10.10;99.90;;;;;;5067330;28;20579;-73
2024/02/12 10:55:45;;;;;;;43.55;28.73;;;10.10;99.90;;;;;;5071446;28;20243;-72
2024/02/12 10:58:15;;;;;;;43.30;28.20;;;10.10;99.90;;;;;;5073402;28;20260;-72
2024/02/12 11:00:42;;;;;;;41.60;26.30;;;10.00;99.90;;;;;;5068431;28;20288;-74
2024/02/12 11:03:09;;;;;;;48.72;27.55;;;10.10;99.90;;;;;;5075335;28;20543;-73
2024/02/12 11:05:43;;;;;;;53.65;23.88;;;10.10;99.90;;;;;;5074631;28;20264;-74
2024/02/12 11:08:18;;;;;;;45.15;29.13;;;10.20;99.90;;;;;;5072178;28;20352;-74
2024/02/12 11:10:49;;;;;;;48.58;27.60;;;10.10;99.90;;;;;;5070743;28;20203;-71
2024/02/12 11:13:19;;;;;;;47.75;27.38;;;10.10;99.90;;;;;;5074785;28;20638;-70
2024/02/12 11:15:50;;;;;;;52.13;28.27;;;10.10;99.90;;;;;;5074442;28;20208;-73
2024/02/12 11:18:17;;;;;;;38.40;22.58;;;10.20;99.90;;;;;;5066080;28;20637;-73
2024/02/12 11:20:50;;;;;;;45.95;27.98;;;10.50;99.90;;;;;;5073824;28;20691;-75
2024/02/12 11:23:22;;;;;;;41.97;26.23;;;10.50;99.90;;;;;;5074056;28;20227;-73
2024/02/12 11:25:49;;;;;;;40.20;25.30;;;10.50;99.90;;;;;;5075588;28;20219;-73
2024/02/12 11:28:18;;;;;;;47.83;26.58;;;10.50;99.90;;;;;;5072723;28;20636;-73
2024/02/12 11:30:48;;;;;;;51.00;27.77;;;10.40;99.90;;;;;;5065549;28;20204;-72
2024/02/12 11:33:15;;;;;;;39.92;24.58;;;10.30;99.90;;;;;;5073122;28;20232;-73
2024/02/12 11:35:42;;;;;;;43.38;27.00;;;10.30;99.90;;;;;;5069068;28;20265;-74
2024/02/12 11:38:13;;;;;;;45.75;30.13;;;10.30;99.90;;;;;;5068947;28;20712;-75
2024/02/12 11:40:40;;;;;;;53.97;27.92;;;10.30;99.90;;;;;;5072603;28;20203;-74
2024/02/12 11:43:08;;;;;;;45.92;26.85;;;10.20;99.90;;;;;;5073768;28;20223;-74
2024/02/12 11:45:38;;;;;;;42.33;26.27;;;10.20;99.90;;;;;;5073215;28;20249;-73
2024/02/12 11:48:07;;;;;;;57.83;30.27;;;10.20;99.90;;;;;;5069406;28;20589;-73
2024/02/12 11:50:34;;;;;;;37.10;23.70;;;10.30;99.90;;;;;;5071898;28;20535;-73
2024/02/12 11:53:02;;;;;;;41.10;25.90;;;10.30;99.90;;;;;;5072813;28;20231;-74
2024/02/12 11:55:28;;;;;;;38.40;25.70;;;10.30;99.90;;;;;;5072835;28;20246;-74
2024/02/12 11:57:56;;;;;;;44.13;28.00;;;10.20;99.90;;;;;;5074098;28;20207;-74
2024/02/12 12:00:23;;;;;;;43.10;27.13;;;10.20;99.90;;;;;;5067705;28;20635;-74
2024/02/12 12:02:55;;;;;;;50.50;26.73;;;10.20;99.90;;;;;;5072615;28;20232;-72
2024/02/12 12:05:23;;;;;;;38.65;27.13;;;10.20;99.90;;;;;;5071176;28;20601;-74
2024/02/12 12:07:51;;;;;;;42.80;27.30;;;10.20;99.90;;;;;;5066508;28;20237;-71
2024/02/12 12:10:21;;;;;;;44.33;26.83;;;10.40;99.90;;;;;;5069773;28;20212;-72
2024/02/12 12:12:49;;;;;;;37.10;23.45;;;10.70;99.90;;;;;;5067533;28;20231;-74
2024/02/12 12:15:16;;;;;;;39.78;22.25;;;11.00;99.90;;;;;;5071453;28;20281;-73
2024/02/12 12:17:43;;;;;;;37.30;25.00;;;11.30;99.90;;;;;;5073299;28;20203;-73
2024/02/12 12:20:12;;;;;;;32.75;22.30;;;11.30;99.90;;;;;;5060096;28;20618;-74
2024/02/12 12:22:39;;;;;;;34.75;24.38;;;11.40;99.90;;;;;;5064334;28;20739;-73
2024/02/12 12:25:08;;;;;;;38.97;26.30;;;11.40;99.90;;;;;;5066050;28;20281;-75
2024/02/12 12:27:35;;;;;;;32.08;23.48;;;11.30;99.90;;;;;;5070428;28;20219;-75
2024/02/12 12:30:13;;;;;;;36.50;24.88;;;11.10;99.90;;;;;;5067336;28;20265;-72
2024/02/12 12:32:41;;;;;;;37.95;25.70;;;11.10;99.90;;;;;;5069973;28;20624;-73
2024/02/12 12:35:08;;;;;;;38.28;25.73;;;10.80;99.90;;;;;;5073096;28;20701;-73
2024/02/12 12:37:37;;;;;;;34.03;24.05;;;10.80;99.90;;;;;;5067491;28;20569;-74
2024/02/12 12:40:08;;;;;;;38.20;24.35;;;10.70;99.90;;;;;;5069026;28;20211;-73
2024/02/12 12:42:37;;;;;;;42.38;26.42;;;10.70;99.90;;;;;;5072442;28;20234;-74
2024/02/12 12:45:04;;;;;;;32.47;21.30;;;10.80;99.90;;;;;;5070461;28;20287;-73
2024/02/12 12:47:36;;;;;;;39.55;22.10;;;10.90;99.90;;;;;;5072897;28;20233;-73
2024/02/12 12:50:04;;;;;;;33.45;23.38;;;10.80;99.90;;;;;;5069035;28;20291;-72
2024/02/12 12:52:33;;;;;;;30.98;20.95;;;10.80;99.90;;;;;;5064479;28;20224;-72